64010 station(s) have been heard in the last 24 hours.

<< 657 658 659 660 661 662 663 >>
  Name/Id Latest heard Comment/Other Map
Symbol OK1UOJ-10 1788358742 LoRa APRS iGATE Map
Symbol LD2GF 1788358742 WX3in1Plus2.0 U=12.3V, SBI FOLLDAL FJELLSYN Map
Symbol VE3DSL-R 1788358742 70cm MMDVM Voice (NXDN) 446.00000MHz -5.0000MHz, VE3DSL_Pi-Star_RPT Map
Symbol EA3RCC-11 1788358742 433.775 MHZ LoRa APRS iGate Radio Club Castellar Map
Symbol DL2YCP-15 1788358742 Map
Symbol R9BT-B 1788358742 Beacon: 144.490 MHz CW 5W J-Ant V Map
Symbol F4JQC-10 1788358742 Testing LoRa iGATE 433.775 Map
Symbol SK3RFG 1788358742 MMDVM 434.8000/432.8000 CC1 Map
Symbol R8ACZ-B 1788358742 Beacon: 144.450 MHz CW Omni V Map
Symbol SR5DMRC 1788358742 DMR repeater 145.6375MHz -0.6MHz BM CC5 Map
Symbol SK2AT 1788358742 M27QNR9JA7AN 434.9750/432.9750 CC2 Map
Symbol M7DJX 1788358742 LoRa APRS i-gate on 439912500 Map
Symbol MW7LXZ B 1788358742 70cm Voice (D-Star) 438.80000MHz +0.0000MHz Map
Symbol N0VYE-B 1788358742 70cm Voice (D-Star) 433.00000MHz +0.0000MHz Map
Symbol DO0RM-1 1788358742 LoRa iGATE & Digi, Info: github.com/lora-aprs/LoRa_APRS_iGate Map
Symbol HB9AK-11 1788358742 LoRa iGate Swiss-ARTG Map
Symbol KA9VXS C 1788358742 2m Voice (D-Star) 147.36000MHz +0.6000MHz Map
Symbol DigiTV 1788358742 DVB-T2 ch28(530MHz) & ch36(594MHz) FM-Radio_Russia-107.7MHz Map
Symbol I4VBO-22 1788358742 LoRa APRS test Map
Symbol OZ6REQ B 1788358742 70cm Voice (D-Star) 434.51250MHz -2.0000MHz Map
Symbol EA4HFK-D 1788358741 2m MMDVM Voice (DMR) 144.85000MHz -0.0250MHz, APRS for DMRGateway Map
Symbol KK7DFM B 1788358741 440 Voice 444.450 +5.00 MHz Map
Symbol IK5ZAI-10 1788358741 ... APRS iGate LoRa tech ... | batt:4.11V Map
Symbol W7MOT-C 1788358741 2m Voice 145.135 -0.600 MHz Map
Symbol VE1HCA 1788358741 Willow Hill, NS MARCAN UIDIGI NSARA Map
Symbol OH9FTW-1 1788358741 DMR Link Rovaniemi 434.425 MHz CC1. Map
Symbol SK2AZ 1788358741 MMDVM 434.8500/432.8500 CC2 Map
Symbol IW2GPM-10 1788358741 LoRa APRS iGate LILYGO TTGO LoRa32 Map
Symbol OE3XNR-2 1788358741 Nebelstein Map
Symbol OK2KOJ-1 1788358741 Map
Symbol DB0UKD-10 1788358741 IGate LoRa RX433.775 (no TX) Temp:27.1C Pressure:1011.0hPa Humidity:54.8% Map
Symbol HG4ZKZ-10 1788358741 LoRa APRS Zmoly Map
Symbol WV0A-B 1788358741 440 Voice 444.075 +5.00 MHz Map
Symbol SV2JT-2 1788358741 LoRa APRS WX N. Krini Map
Symbol PU2MUS-1 1788358741 Marco - Santos/SP/BR -290-<630> Map
Symbol G0HFH-N 1788358741 70cm MMDVM Voice (C4FM) 438.80000MHz +0.0000MHz, G0HFH_Pi-Star_ND Map
Symbol DA1MN-B 1788358741 70cm Voice (D-Star) 433.65000MHz +0.0000MHz, APRS for ircDDBGateway Map
Symbol K0IN-Z 1788358741 70cm Voice (D-Star) 434.80000MHz +0.0000MHz Map
Symbol SK2CI 1788358741 MMDVM 434.8000/432.8000 CC2 Map
Symbol WM8TG-C 1788358741 2m Voice 147.290 +0.600 MHz Map
Symbol DF8RST-D 1788358741 70cm MMDVM Voice (DMR) 433.65000MHz +0.0000MHz, APRS for DMRGateway Map
Symbol ZR6JBI-4 1788358741 GROIP2 Beacon Map
Symbol W7MOT-B 1788358741 440 Voice 440.8125 +5 MHz Map
Symbol P0PUGAJ 1788358741 Echo Repeater. PMR 446.08125(ch7) CTCSS 123. Map
Symbol PU1STZ C 1788358741 70cm Voice (D-Star) 433.02500MHz +0.0000MHz Map
Symbol WM8TG-B 1788358741 440 Voice 442.550 +5.00 MHz Map
Symbol HEAT-13 1788358741 Air Quality Index:191 Map
Symbol SK2AU/R4 1788358741 Galtispouda Solcellsdrift Map
Symbol OH3RUX-L1 1788358741 LoRa APRS RX-iGate Kotala Virrat Map
Symbol SK2RJH 1788358741 MMDVM 434.7500/432.7500 CC2 Map